sensor_id;sensor_type;location;lat;lon;timestamp;temperature;humidity
64937;SHT30;51452;47.698;19.050;2022-12-16T00:00:24;3.09;86.28
64937;SHT30;51452;47.698;19.050;2022-12-16T00:02:50;3.19;86.14
64937;SHT30;51452;47.698;19.050;2022-12-16T00:05:16;3.31;85.93
64937;SHT30;51452;47.698;19.050;2022-12-16T00:07:41;3.34;85.88
64937;SHT30;51452;47.698;19.050;2022-12-16T00:10:08;3.31;85.67
64937;SHT30;51452;47.698;19.050;2022-12-16T00:12:33;3.41;85.55
64937;SHT30;51452;47.698;19.050;2022-12-16T00:14:59;3.51;85.20
64937;SHT30;51452;47.698;19.050;2022-12-16T00:17:25;3.54;85.19
64937;SHT30;51452;47.698;19.050;2022-12-16T00:19:50;3.60;84.93
64937;SHT30;51452;47.698;19.050;2022-12-16T00:22:16;3.66;84.63
64937;SHT30;51452;47.698;19.050;2022-12-16T00:24:41;3.70;84.68
64937;SHT30;51452;47.698;19.050;2022-12-16T00:27:07;3.73;84.55
64937;SHT30;51452;47.698;19.050;2022-12-16T00:29:32;3.73;84.36
64937;SHT30;51452;47.698;19.050;2022-12-16T00:31:58;3.73;84.19
64937;SHT30;51452;47.698;19.050;2022-12-16T00:34:23;3.66;84.51
64937;SHT30;51452;47.698;19.050;2022-12-16T00:36:48;3.77;84.21
64937;SHT30;51452;47.698;19.050;2022-12-16T00:39:14;3.78;84.23
64937;SHT30;51452;47.698;19.050;2022-12-16T00:41:39;3.81;84.32
64937;SHT30;51452;47.698;19.050;2022-12-16T00:44:05;3.75;84.37
64937;SHT30;51452;47.698;19.050;2022-12-16T00:46:30;3.81;84.17
64937;SHT30;51452;47.698;19.050;2022-12-16T00:48:56;3.88;83.98
64937;SHT30;51452;47.698;19.050;2022-12-16T00:51:21;3.89;84.01
64937;SHT30;51452;47.698;19.050;2022-12-16T00:53:47;3.92;83.85
64937;SHT30;51452;47.698;19.050;2022-12-16T00:56:13;3.91;83.95
64937;SHT30;51452;47.698;19.050;2022-12-16T00:58:39;3.85;84.12
64937;SHT30;51452;47.698;19.050;2022-12-16T01:01:06;3.95;83.81
64937;SHT30;51452;47.698;19.050;2022-12-16T01:03:32;4.01;83.69
64937;SHT30;51452;47.698;19.050;2022-12-16T01:05:57;4.01;83.65
64937;SHT30;51452;47.698;19.050;2022-12-16T01:08:23;4.01;83.75
64937;SHT30;51452;47.698;19.050;2022-12-16T01:10:53;4.03;83.83
64937;SHT30;51452;47.698;19.050;2022-12-16T01:13:19;4.02;83.83
64937;SHT30;51452;47.698;19.050;2022-12-16T01:15:45;3.91;84.24
64937;SHT30;51452;47.698;19.050;2022-12-16T01:18:11;3.77;84.95
64937;SHT30;51452;47.698;19.050;2022-12-16T01:20:36;3.73;85.20
64937;SHT30;51452;47.698;19.050;2022-12-16T01:23:02;3.70;85.65
64937;SHT30;51452;47.698;19.050;2022-12-16T01:25:28;3.78;85.54
64937;SHT30;51452;47.698;19.050;2022-12-16T01:27:53;3.77;85.48
64937;SHT30;51452;47.698;19.050;2022-12-16T01:30:19;3.78;85.42
64937;SHT30;51452;47.698;19.050;2022-12-16T01:32:44;3.64;86.00
64937;SHT30;51452;47.698;19.050;2022-12-16T01:35:09;3.70;86.19
64937;SHT30;51452;47.698;19.050;2022-12-16T01:37:35;3.66;86.46
64937;SHT30;51452;47.698;19.050;2022-12-16T01:40:01;3.61;86.80
64937;SHT30;51452;47.698;19.050;2022-12-16T01:42:26;3.64;86.86
64937;SHT30;51452;47.698;19.050;2022-12-16T01:45:28;3.54;87.21
64937;SHT30;51452;47.698;19.050;2022-12-16T01:47:57;3.58;87.30
64937;SHT30;51452;47.698;19.050;2022-12-16T01:50:23;3.63;87.20
64937;SHT30;51452;47.698;19.050;2022-12-16T01:52:53;3.63;87.22
64937;SHT30;51452;47.698;19.050;2022-12-16T01:55:25;3.60;87.47
64937;SHT30;51452;47.698;19.050;2022-12-16T01:58:07;3.50;87.48
64937;SHT30;51452;47.698;19.050;2022-12-16T02:00:34;3.48;87.41
64937;SHT30;51452;47.698;19.050;2022-12-16T02:03:01;3.48;87.70
64937;SHT30;51452;47.698;19.050;2022-12-16T02:05:27;3.46;87.80
64937;SHT30;51452;47.698;19.050;2022-12-16T02:16:14;3.46;88.82
64937;SHT30;51452;47.698;19.050;2022-12-16T02:21:46;3.46;89.22
64937;SHT30;51452;47.698;19.050;2022-12-16T02:35:00;3.53;89.01
64937;SHT30;51452;47.698;19.050;2022-12-16T02:37:42;3.50;89.03
64937;SHT30;51452;47.698;19.050;2022-12-16T02:42:46;3.50;89.55
64937;SHT30;51452;47.698;19.050;2022-12-16T02:45:16;3.53;89.47
64937;SHT30;51452;47.698;19.050;2022-12-16T02:47:43;3.50;89.40
64937;SHT30;51452;47.698;19.050;2022-12-16T02:50:17;3.48;89.50
64937;SHT30;51452;47.698;19.050;2022-12-16T02:52:44;3.50;89.78
64937;SHT30;51452;47.698;19.050;2022-12-16T02:55:10;3.53;89.74
64937;SHT30;51452;47.698;19.050;2022-12-16T03:00:32;3.51;89.69
64937;SHT30;51452;47.698;19.050;2022-12-16T03:03:19;3.53;89.63
64937;SHT30;51452;47.698;19.050;2022-12-16T03:05:49;3.54;89.67
64937;SHT30;51452;47.698;19.050;2022-12-16T03:08:21;3.53;89.94
64937;SHT30;51452;47.698;19.050;2022-12-16T03:10:52;3.70;89.93
64937;SHT30;51452;47.698;19.050;2022-12-16T03:13:20;3.84;89.51
64937;SHT30;51452;47.698;19.050;2022-12-16T03:15:48;3.97;88.92
64937;SHT30;51452;47.698;19.050;2022-12-16T03:18:17;4.02;88.57
64937;SHT30;51452;47.698;19.050;2022-12-16T03:20:59;4.19;87.96
64937;SHT30;51452;47.698;19.050;2022-12-16T03:23:29;4.26;87.71
64937;SHT30;51452;47.698;19.050;2022-12-16T03:26:01;4.16;87.23
64937;SHT30;51452;47.698;19.050;2022-12-16T03:28:41;4.01;87.91
64937;SHT30;51452;47.698;19.050;2022-12-16T03:34:09;4.05;88.54
64937;SHT30;51452;47.698;19.050;2022-12-16T03:36:36;4.22;88.12
64937;SHT30;51452;47.698;19.050;2022-12-16T03:39:05;4.35;87.73
64937;SHT30;51452;47.698;19.050;2022-12-16T03:41:32;4.13;87.52
64937;SHT30;51452;47.698;19.050;2022-12-16T03:43:58;4.26;87.30
64937;SHT30;51452;47.698;19.050;2022-12-16T03:46:23;4.26;86.93
64937;SHT30;51452;47.698;19.050;2022-12-16T03:48:50;4.43;86.70
64937;SHT30;51452;47.698;19.050;2022-12-16T03:51:18;4.47;86.63
64937;SHT30;51452;47.698;19.050;2022-12-16T03:53:44;4.57;86.30
64937;SHT30;51452;47.698;19.050;2022-12-16T03:56:10;4.63;86.20
64937;SHT30;51452;47.698;19.050;2022-12-16T03:58:36;4.67;86.03
64937;SHT30;51452;47.698;19.050;2022-12-16T04:01:04;4.73;85.74
64937;SHT30;51452;47.698;19.050;2022-12-16T04:03:29;4.71;85.83
64937;SHT30;51452;47.698;19.050;2022-12-16T04:05:55;4.76;85.63
64937;SHT30;51452;47.698;19.050;2022-12-16T04:08:20;4.67;85.66
64937;SHT30;51452;47.698;19.050;2022-12-16T04:10:45;4.59;86.15
64937;SHT30;51452;47.698;19.050;2022-12-16T04:13:29;4.64;85.98
64937;SHT30;51452;47.698;19.050;2022-12-16T04:16:15;4.70;85.78
64937;SHT30;51452;47.698;19.050;2022-12-16T04:19:20;4.71;85.67
64937;SHT30;51452;47.698;19.050;2022-12-16T04:22:11;4.74;85.59
64937;SHT30;51452;47.698;19.050;2022-12-16T04:24:58;4.76;85.66
64937;SHT30;51452;47.698;19.050;2022-12-16T04:27:23;4.76;85.71
64937;SHT30;51452;47.698;19.050;2022-12-16T04:29:49;4.63;86.16
64937;SHT30;51452;47.698;19.050;2022-12-16T04:32:33;4.78;85.63
64937;SHT30;51452;47.698;19.050;2022-12-16T04:35:19;4.81;85.56
64937;SHT30;51452;47.698;19.050;2022-12-16T04:38:03;4.77;85.85
64937;SHT30;51452;47.698;19.050;2022-12-16T04:40:47;4.59;86.04
64937;SHT30;51452;47.698;19.050;2022-12-16T04:43:31;4.54;86.36
64937;SHT30;51452;47.698;19.050;2022-12-16T04:46:15;4.59;86.42
64937;SHT30;51452;47.698;19.050;2022-12-16T04:48:59;4.63;86.59
64937;SHT30;51452;47.698;19.050;2022-12-16T04:51:43;4.73;86.12
64937;SHT30;51452;47.698;19.050;2022-12-16T04:54:26;4.61;86.46
64937;SHT30;51452;47.698;19.050;2022-12-16T04:57:10;4.73;86.17
64937;SHT30;51452;47.698;19.050;2022-12-16T04:59:54;4.70;86.33
64937;SHT30;51452;47.698;19.050;2022-12-16T05:02:38;4.49;86.86
64937;SHT30;51452;47.698;19.050;2022-12-16T05:05:22;4.60;86.74
64937;SHT30;51452;47.698;19.050;2022-12-16T05:08:06;4.61;86.81
64937;SHT30;51452;47.698;19.050;2022-12-16T05:10:50;4.70;86.77
64937;SHT30;51452;47.698;19.050;2022-12-16T05:13:34;4.73;86.57
64937;SHT30;51452;47.698;19.050;2022-12-16T05:16:18;4.80;86.21
64937;SHT30;51452;47.698;19.050;2022-12-16T05:19:02;4.69;86.56
64937;SHT30;51452;47.698;19.050;2022-12-16T05:21:46;4.64;87.03
64937;SHT30;51452;47.698;19.050;2022-12-16T05:24:30;4.70;86.90
64937;SHT30;51452;47.698;19.050;2022-12-16T05:27:14;4.76;86.80
64937;SHT30;51452;47.698;19.050;2022-12-16T05:29:58;4.80;86.90
64937;SHT30;51452;47.698;19.050;2022-12-16T05:32:53;4.70;87.23
64937;SHT30;51452;47.698;19.050;2022-12-16T05:35:37;4.77;86.89
64937;SHT30;51452;47.698;19.050;2022-12-16T05:38:21;4.83;86.71
64937;SHT30;51452;47.698;19.050;2022-12-16T05:41:05;4.80;86.63
64937;SHT30;51452;47.698;19.050;2022-12-16T05:43:49;4.74;87.00
64937;SHT30;51452;47.698;19.050;2022-12-16T05:46:33;4.85;86.81
64937;SHT30;51452;47.698;19.050;2022-12-16T05:49:17;4.80;86.97
64937;SHT30;51452;47.698;19.050;2022-12-16T05:52:01;4.78;87.13
64937;SHT30;51452;47.698;19.050;2022-12-16T05:54:45;4.87;86.97
64937;SHT30;51452;47.698;19.050;2022-12-16T05:57:29;4.85;86.87
64937;SHT30;51452;47.698;19.050;2022-12-16T06:00:13;4.81;86.97
64937;SHT30;51452;47.698;19.050;2022-12-16T06:02:58;4.94;86.95
64937;SHT30;51452;47.698;19.050;2022-12-16T06:05:42;4.88;87.03
64937;SHT30;51452;47.698;19.050;2022-12-16T06:08:26;4.92;87.06
64937;SHT30;51452;47.698;19.050;2022-12-16T06:11:10;4.95;87.09
64937;SHT30;51452;47.698;19.050;2022-12-16T06:13:54;5.00;86.98
64937;SHT30;51452;47.698;19.050;2022-12-16T06:16:38;5.00;86.97
64937;SHT30;51452;47.698;19.050;2022-12-16T06:19:22;4.94;87.13
64937;SHT30;51452;47.698;19.050;2022-12-16T06:22:06;4.94;87.20
64937;SHT30;51452;47.698;19.050;2022-12-16T06:24:50;4.97;87.35
64937;SHT30;51452;47.698;19.050;2022-12-16T06:27:34;4.94;87.65
64937;SHT30;51452;47.698;19.050;2022-12-16T06:30:18;5.07;87.24
64937;SHT30;51452;47.698;19.050;2022-12-16T06:33:02;5.11;87.28
64937;SHT30;51452;47.698;19.050;2022-12-16T06:35:46;5.09;87.11
64937;SHT30;51452;47.698;19.050;2022-12-16T06:38:30;5.08;87.12
64937;SHT30;51452;47.698;19.050;2022-12-16T06:41:14;5.08;87.16
64937;SHT30;51452;47.698;19.050;2022-12-16T06:43:58;5.18;86.96
64937;SHT30;51452;47.698;19.050;2022-12-16T06:46:42;5.25;86.80
64937;SHT30;51452;47.698;19.050;2022-12-16T06:49:26;5.31;86.63
64937;SHT30;51452;47.698;19.050;2022-12-16T06:52:10;5.39;86.32
64937;SHT30;51452;47.698;19.050;2022-12-16T06:54:54;5.35;86.31
64937;SHT30;51452;47.698;19.050;2022-12-16T06:57:38;5.39;86.32
64937;SHT30;51452;47.698;19.050;2022-12-16T07:00:22;5.43;86.16
64937;SHT30;51452;47.698;19.050;2022-12-16T07:03:06;5.40;86.02
64937;SHT30;51452;47.698;19.050;2022-12-16T07:05:54;5.50;85.72
64937;SHT30;51452;47.698;19.050;2022-12-16T07:08:38;5.56;85.60
64937;SHT30;51452;47.698;19.050;2022-12-16T07:11:22;5.56;85.51
64937;SHT30;51452;47.698;19.050;2022-12-16T07:14:06;5.59;85.45
64937;SHT30;51452;47.698;19.050;2022-12-16T07:16:50;5.63;85.13
64937;SHT30;51452;47.698;19.050;2022-12-16T07:19:34;5.60;85.23
64937;SHT30;51452;47.698;19.050;2022-12-16T07:22:18;5.58;85.28
64937;SHT30;51452;47.698;19.050;2022-12-16T07:25:02;5.58;85.25
64937;SHT30;51452;47.698;19.050;2022-12-16T07:27:46;5.58;85.39
64937;SHT30;51452;47.698;19.050;2022-12-16T07:30:30;5.59;85.32
64937;SHT30;51452;47.698;19.050;2022-12-16T07:33:14;5.63;85.19
64937;SHT30;51452;47.698;19.050;2022-12-16T07:35:58;5.60;85.31
64937;SHT30;51452;47.698;19.050;2022-12-16T07:38:42;5.67;85.07
64937;SHT30;51452;47.698;19.050;2022-12-16T07:41:26;5.71;84.96
64937;SHT30;51452;47.698;19.050;2022-12-16T07:44:10;5.70;84.98
64937;SHT30;51452;47.698;19.050;2022-12-16T07:46:54;5.74;84.78
64937;SHT30;51452;47.698;19.050;2022-12-16T07:49:38;5.74;84.82
64937;SHT30;51452;47.698;19.050;2022-12-16T07:52:22;5.65;84.99
64937;SHT30;51452;47.698;19.050;2022-12-16T07:55:06;5.71;84.90
64937;SHT30;51452;47.698;19.050;2022-12-16T07:57:51;5.73;84.88
64937;SHT30;51452;47.698;19.050;2022-12-16T08:00:35;5.71;84.96
64937;SHT30;51452;47.698;19.050;2022-12-16T08:03:19;5.77;84.81
64937;SHT30;51452;47.698;19.050;2022-12-16T08:06:03;5.81;84.70
64937;SHT30;51452;47.698;19.050;2022-12-16T08:08:47;5.83;84.69
64937;SHT30;51452;47.698;19.050;2022-12-16T08:11:30;5.76;84.77
64937;SHT30;51452;47.698;19.050;2022-12-16T08:14:14;5.80;84.60
64937;SHT30;51452;47.698;19.050;2022-12-16T08:16:58;5.80;84.56
64937;SHT30;51452;47.698;19.050;2022-12-16T08:19:42;5.81;84.51
64937;SHT30;51452;47.698;19.050;2022-12-16T08:22:26;5.81;84.53
64937;SHT30;51452;47.698;19.050;2022-12-16T08:25:11;5.83;84.63
64937;SHT30;51452;47.698;19.050;2022-12-16T08:27:55;5.77;84.72
64937;SHT30;51452;47.698;19.050;2022-12-16T08:30:41;5.83;84.62
64937;SHT30;51452;47.698;19.050;2022-12-16T08:33:24;5.86;84.59
64937;SHT30;51452;47.698;19.050;2022-12-16T08:36:08;5.90;84.58
64937;SHT30;51452;47.698;19.050;2022-12-16T08:38:52;5.96;84.49
64937;SHT30;51452;47.698;19.050;2022-12-16T08:41:36;5.97;84.39
64937;SHT30;51452;47.698;19.050;2022-12-16T08:44:20;6.00;84.21
64937;SHT30;51452;47.698;19.050;2022-12-16T08:47:04;6.01;84.06
64937;SHT30;51452;47.698;19.050;2022-12-16T08:49:48;5.96;84.00
64937;SHT30;51452;47.698;19.050;2022-12-16T08:52:32;6.00;84.02
64937;SHT30;51452;47.698;19.050;2022-12-16T08:55:16;6.04;83.99
64937;SHT30;51452;47.698;19.050;2022-12-16T08:58:00;6.09;83.94
64937;SHT30;51452;47.698;19.050;2022-12-16T09:00:44;6.16;83.75
64937;SHT30;51452;47.698;19.050;2022-12-16T09:03:28;6.20;83.74
64937;SHT30;51452;47.698;19.050;2022-12-16T09:06:12;6.22;83.75
64937;SHT30;51452;47.698;19.050;2022-12-16T09:08:56;6.28;83.55
64937;SHT30;51452;47.698;19.050;2022-12-16T09:11:40;6.30;83.47
64937;SHT30;51452;47.698;19.050;2022-12-16T09:14:24;6.35;83.44
64937;SHT30;51452;47.698;19.050;2022-12-16T09:17:08;6.34;83.31
64937;SHT30;51452;47.698;19.050;2022-12-16T09:19:52;6.34;83.32
64937;SHT30;51452;47.698;19.050;2022-12-16T09:22:36;6.30;83.61
64937;SHT30;51452;47.698;19.050;2022-12-16T09:25:20;6.32;83.52
64937;SHT30;51452;47.698;19.050;2022-12-16T09:28:04;6.24;83.81
64937;SHT30;51452;47.698;19.050;2022-12-16T09:30:48;6.18;83.72
64937;SHT30;51452;47.698;19.050;2022-12-16T09:33:32;6.14;83.65
64937;SHT30;51452;47.698;19.050;2022-12-16T09:36:16;6.14;83.64
64937;SHT30;51452;47.698;19.050;2022-12-16T09:39:00;6.10;83.97
64937;SHT30;51452;47.698;19.050;2022-12-16T09:41:54;6.16;83.84
64937;SHT30;51452;47.698;19.050;2022-12-16T09:44:59;6.16;83.84
64937;SHT30;51452;47.698;19.050;2022-12-16T09:48:10;6.22;83.58
64937;SHT30;51452;47.698;19.050;2022-12-16T09:50:57;6.31;83.59
64937;SHT30;51452;47.698;19.050;2022-12-16T09:53:47;6.40;83.31
64937;SHT30;51452;47.698;19.050;2022-12-16T09:56:33;6.44;83.19
64937;SHT30;51452;47.698;19.050;2022-12-16T09:59:26;6.44;83.12
64937;SHT30;51452;47.698;19.050;2022-12-16T10:02:12;6.51;83.09
64937;SHT30;51452;47.698;19.050;2022-12-16T10:04:56;6.51;83.09
64937;SHT30;51452;47.698;19.050;2022-12-16T10:07:47;6.51;83.05
64937;SHT30;51452;47.698;19.050;2022-12-16T10:11:09;6.48;83.08
64937;SHT30;51452;47.698;19.050;2022-12-16T10:14:01;6.56;83.14
64937;SHT30;51452;47.698;19.050;2022-12-16T10:17:12;6.53;83.01
64937;SHT30;51452;47.698;19.050;2022-12-16T10:20:11;6.56;83.00
64937;SHT30;51452;47.698;19.050;2022-12-16T10:23:35;6.55;83.02
64937;SHT30;51452;47.698;19.050;2022-12-16T10:26:22;6.53;83.05
64937;SHT30;51452;47.698;19.050;2022-12-16T10:29:19;6.55;83.17
64937;SHT30;51452;47.698;19.050;2022-12-16T10:32:13;6.58;83.01
64937;SHT30;51452;47.698;19.050;2022-12-16T10:34:59;6.62;82.95
64937;SHT30;51452;47.698;19.050;2022-12-16T10:37:44;6.62;82.92
64937;SHT30;51452;47.698;19.050;2022-12-16T10:40:31;6.64;82.78
64937;SHT30;51452;47.698;19.050;2022-12-16T10:43:23;6.59;82.73
64937;SHT30;51452;47.698;19.050;2022-12-16T10:46:19;6.55;82.90
64937;SHT30;51452;47.698;19.050;2022-12-16T10:49:10;6.62;82.84
64937;SHT30;51452;47.698;19.050;2022-12-16T10:51:56;6.69;82.83
64937;SHT30;51452;47.698;19.050;2022-12-16T10:54:47;6.68;82.77
64937;SHT30;51452;47.698;19.050;2022-12-16T10:58:13;6.69;82.83
64937;SHT30;51452;47.698;19.050;2022-12-16T11:00:59;6.78;83.10
64937;SHT30;51452;47.698;19.050;2022-12-16T11:03:43;6.78;82.92
64937;SHT30;51452;47.698;19.050;2022-12-16T11:09:32;6.85;82.89
64937;SHT30;51452;47.698;19.050;2022-12-16T11:12:28;6.96;82.84
64937;SHT30;51452;47.698;19.050;2022-12-16T11:15:32;6.99;82.78
64937;SHT30;51452;47.698;19.050;2022-12-16T11:18:20;7.00;82.75
64937;SHT30;51452;47.698;19.050;2022-12-16T11:21:16;6.96;82.74
64937;SHT30;51452;47.698;19.050;2022-12-16T11:24:19;6.79;82.96
64937;SHT30;51452;47.698;19.050;2022-12-16T11:27:15;6.76;83.38
64937;SHT30;51452;47.698;19.050;2022-12-16T11:30:15;6.65;83.25
64937;SHT30;51452;47.698;19.050;2022-12-16T11:33:11;6.59;83.73
64937;SHT30;51452;47.698;19.050;2022-12-16T11:36:10;6.59;83.69
64937;SHT30;51452;47.698;19.050;2022-12-16T11:38:56;6.40;85.11
64937;SHT30;51452;47.698;19.050;2022-12-16T11:41:42;6.38;85.39
64937;SHT30;51452;47.698;19.050;2022-12-16T11:44:57;6.32;85.40
64937;SHT30;51452;47.698;19.050;2022-12-16T11:47:55;6.42;85.20
64937;SHT30;51452;47.698;19.050;2022-12-16T11:50:52;6.45;85.07
64937;SHT30;51452;47.698;19.050;2022-12-16T11:53:58;6.55;84.83
64937;SHT30;51452;47.698;19.050;2022-12-16T11:56:44;6.55;84.90
64937;SHT30;51452;47.698;19.050;2022-12-16T11:59:39;6.53;84.70
64937;SHT30;51452;47.698;19.050;2022-12-16T12:02:46;6.53;84.67
64937;SHT30;51452;47.698;19.050;2022-12-16T12:05:37;6.58;84.37
64937;SHT30;51452;47.698;19.050;2022-12-16T12:08:49;6.48;84.38
64937;SHT30;51452;47.698;19.050;2022-12-16T12:11:38;6.53;84.47
64937;SHT30;51452;47.698;19.050;2022-12-16T12:14:38;6.61;84.37
64937;SHT30;51452;47.698;19.050;2022-12-16T12:17:34;6.59;84.37
64937;SHT30;51452;47.698;19.050;2022-12-16T12:26:42;6.55;84.17
64937;SHT30;51452;47.698;19.050;2022-12-16T12:32:33;6.46;83.92
64937;SHT30;51452;47.698;19.050;2022-12-16T12:38:55;6.27;83.79
64937;SHT30;51452;47.698;19.050;2022-12-16T12:42:07;6.22;83.81
64937;SHT30;51452;47.698;19.050;2022-12-16T12:45:15;6.06;84.51
64937;SHT30;51452;47.698;19.050;2022-12-16T12:48:16;6.16;84.41
64937;SHT30;51452;47.698;19.050;2022-12-16T12:51:24;6.25;84.31
64937;SHT30;51452;47.698;19.050;2022-12-16T12:54:26;6.38;84.07
64937;SHT30;51452;47.698;19.050;2022-12-16T12:57:17;6.48;83.86
64937;SHT30;51452;47.698;19.050;2022-12-16T13:00:05;6.41;84.14
64937;SHT30;51452;47.698;19.050;2022-12-16T13:05:43;6.73;83.47
64937;SHT30;51452;47.698;19.050;2022-12-16T13:11:22;6.89;83.49
64937;SHT30;51452;47.698;19.050;2022-12-16T13:17:16;6.88;83.48
64937;SHT30;51452;47.698;19.050;2022-12-16T13:20:01;6.89;83.09
64937;SHT30;51452;47.698;19.050;2022-12-16T13:22:46;6.89;82.94
64937;SHT30;51452;47.698;19.050;2022-12-16T13:25:48;6.83;82.92
64937;SHT30;51452;47.698;19.050;2022-12-16T13:28:34;6.86;82.98
64937;SHT30;51452;47.698;19.050;2022-12-16T13:31:19;6.88;82.89
64937;SHT30;51452;47.698;19.050;2022-12-16T13:34:20;6.79;82.24
64937;SHT30;51452;47.698;19.050;2022-12-16T13:37:06;6.85;81.84
64937;SHT30;51452;47.698;19.050;2022-12-16T13:40:05;6.88;81.78
64937;SHT30;51452;47.698;19.050;2022-12-16T13:42:55;6.92;81.99
64937;SHT30;51452;47.698;19.050;2022-12-16T13:45:42;6.89;82.45
64937;SHT30;51452;47.698;19.050;2022-12-16T13:48:46;6.95;82.43
64937;SHT30;51452;47.698;19.050;2022-12-16T13:54:28;7.02;82.17
64937;SHT30;51452;47.698;19.050;2022-12-16T13:57:17;6.97;82.21
64937;SHT30;51452;47.698;19.050;2022-12-16T14:00:03;6.92;82.52
64937;SHT30;51452;47.698;19.050;2022-12-16T14:02:49;6.89;82.54
64937;SHT30;51452;47.698;19.050;2022-12-16T14:05:36;6.88;82.66
64937;SHT30;51452;47.698;19.050;2022-12-16T14:08:22;6.68;83.03
64937;SHT30;51452;47.698;19.050;2022-12-16T14:11:18;6.55;83.57
64937;SHT30;51452;47.698;19.050;2022-12-16T14:17:05;6.67;83.59
64937;SHT30;51452;47.698;19.050;2022-12-16T14:19:59;6.67;83.51
64937;SHT30;51452;47.698;19.050;2022-12-16T14:23:08;6.64;83.27
64937;SHT30;51452;47.698;19.050;2022-12-16T14:25:56;6.62;83.55
64937;SHT30;51452;47.698;19.050;2022-12-16T14:28:41;6.65;83.58
64937;SHT30;51452;47.698;19.050;2022-12-16T14:31:34;6.65;83.25
64937;SHT30;51452;47.698;19.050;2022-12-16T14:34:28;6.65;83.28
64937;SHT30;51452;47.698;19.050;2022-12-16T14:37:19;6.64;83.19
64937;SHT30;51452;47.698;19.050;2022-12-16T14:40:51;6.61;83.40
64937;SHT30;51452;47.698;19.050;2022-12-16T14:43:12;6.58;83.66
64937;SHT30;51452;47.698;19.050;2022-12-16T14:45:56;6.59;83.46
64937;SHT30;51452;47.698;19.050;2022-12-16T14:48:44;6.55;83.54
64937;SHT30;51452;47.698;19.050;2022-12-16T14:51:34;6.51;83.57
64937;SHT30;51452;47.698;19.050;2022-12-16T14:54:25;6.45;83.82
64937;SHT30;51452;47.698;19.050;2022-12-16T14:57:20;6.46;84.06
64937;SHT30;51452;47.698;19.050;2022-12-16T15:05:41;6.49;84.46
64937;SHT30;51452;47.698;19.050;2022-12-16T15:08:27;6.31;84.90
64937;SHT30;51452;47.698;19.050;2022-12-16T15:11:21;6.35;84.72
64937;SHT30;51452;47.698;19.050;2022-12-16T15:14:06;6.41;84.87
64937;SHT30;51452;47.698;19.050;2022-12-16T15:16:56;6.35;85.15
64937;SHT30;51452;47.698;19.050;2022-12-16T15:19:45;6.35;85.21
64937;SHT30;51452;47.698;19.050;2022-12-16T15:22:29;6.37;85.19
64937;SHT30;51452;47.698;19.050;2022-12-16T15:25:22;6.18;85.16
64937;SHT30;51452;47.698;19.050;2022-12-16T15:28:24;6.21;84.96
64937;SHT30;51452;47.698;19.050;2022-12-16T15:31:13;6.30;84.62
64937;SHT30;51452;47.698;19.050;2022-12-16T15:34:48;6.06;84.02
64937;SHT30;51452;47.698;19.050;2022-12-16T15:37:38;6.01;83.79
64937;SHT30;51452;47.698;19.050;2022-12-16T15:43:28;5.93;83.14
64937;SHT30;51452;47.698;19.050;2022-12-16T15:46:46;5.56;84.46
64937;SHT30;51452;47.698;19.050;2022-12-16T15:49:30;5.46;84.96
64937;SHT30;51452;47.698;19.050;2022-12-16T15:58:26;5.39;84.91
64937;SHT30;51452;47.698;19.050;2022-12-16T16:01:14;5.45;84.44
64937;SHT30;51452;47.698;19.050;2022-12-16T16:03:59;5.40;84.34
64937;SHT30;51452;47.698;19.050;2022-12-16T16:06:48;5.38;84.44
64937;SHT30;51452;47.698;19.050;2022-12-16T16:09:34;5.40;84.06
64937;SHT30;51452;47.698;19.050;2022-12-16T16:12:20;5.42;84.24
64937;SHT30;51452;47.698;19.050;2022-12-16T16:15:06;5.38;84.19
64937;SHT30;51452;47.698;19.050;2022-12-16T16:17:58;5.42;83.71
64937;SHT30;51452;47.698;19.050;2022-12-16T16:20:43;5.42;83.42
64937;SHT30;51452;47.698;19.050;2022-12-16T16:23:27;5.46;83.24
64937;SHT30;51452;47.698;19.050;2022-12-16T16:26:13;5.43;82.63
64937;SHT30;51452;47.698;19.050;2022-12-16T16:28:58;5.55;82.67
64937;SHT30;51452;47.698;19.050;2022-12-16T16:31:42;5.55;82.43
64937;SHT30;51452;47.698;19.050;2022-12-16T16:34:26;5.58;82.76
64937;SHT30;51452;47.698;19.050;2022-12-16T16:37:15;5.62;82.55
64937;SHT30;51452;47.698;19.050;2022-12-16T16:40:00;5.65;82.84
64937;SHT30;51452;47.698;19.050;2022-12-16T16:42:44;5.70;82.90
64937;SHT30;51452;47.698;19.050;2022-12-16T16:45:28;5.76;82.85
64937;SHT30;51452;47.698;19.050;2022-12-16T16:48:16;5.74;82.81
64937;SHT30;51452;47.698;19.050;2022-12-16T16:51:02;5.79;82.72
64937;SHT30;51452;47.698;19.050;2022-12-16T16:53:47;5.69;82.38
64937;SHT30;51452;47.698;19.050;2022-12-16T16:56:36;5.67;82.22
64937;SHT30;51452;47.698;19.050;2022-12-16T16:59:21;5.50;82.16
64937;SHT30;51452;47.698;19.050;2022-12-16T17:02:16;5.38;82.37
64937;SHT30;51452;47.698;19.050;2022-12-16T17:05:01;5.28;82.54
64937;SHT30;51452;47.698;19.050;2022-12-16T17:07:45;5.11;82.96
64937;SHT30;51452;47.698;19.050;2022-12-16T17:10:29;4.92;83.01
64937;SHT30;51452;47.698;19.050;2022-12-16T17:13:13;4.78;82.97
64937;SHT30;51452;47.698;19.050;2022-12-16T17:15:57;4.87;83.18
64937;SHT30;51452;47.698;19.050;2022-12-16T17:18:41;4.76;83.10
64937;SHT30;51452;47.698;19.050;2022-12-16T17:21:25;4.66;83.60
64937;SHT30;51452;47.698;19.050;2022-12-16T17:24:09;4.66;83.71
64937;SHT30;51452;47.698;19.050;2022-12-16T17:26:53;4.61;83.75
64937;SHT30;51452;47.698;19.050;2022-12-16T17:29:48;4.56;84.11
64937;SHT30;51452;47.698;19.050;2022-12-16T17:32:32;4.46;84.32
64937;SHT30;51452;47.698;19.050;2022-12-16T17:35:16;4.49;84.27
64937;SHT30;51452;47.698;19.050;2022-12-16T17:38:00;4.45;84.65
64937;SHT30;51452;47.698;19.050;2022-12-16T17:40:50;4.45;84.64
64937;SHT30;51452;47.698;19.050;2022-12-16T17:43:52;4.43;84.60
64937;SHT30;51452;47.698;19.050;2022-12-16T17:46:35;4.43;84.48
64937;SHT30;51452;47.698;19.050;2022-12-16T17:49:20;4.36;84.79
64937;SHT30;51452;47.698;19.050;2022-12-16T17:52:04;4.32;84.95
64937;SHT30;51452;47.698;19.050;2022-12-16T17:54:47;4.33;84.86
64937;SHT30;51452;47.698;19.050;2022-12-16T17:57:31;4.26;85.23
64937;SHT30;51452;47.698;19.050;2022-12-16T18:00:16;4.25;85.29
64937;SHT30;51452;47.698;19.050;2022-12-16T18:03:00;4.25;85.30
64937;SHT30;51452;47.698;19.050;2022-12-16T18:05:44;4.38;85.19
64937;SHT30;51452;47.698;19.050;2022-12-16T18:08:30;4.36;85.06
64937;SHT30;51452;47.698;19.050;2022-12-16T18:11:14;4.42;84.85
64937;SHT30;51452;47.698;19.050;2022-12-16T18:13:58;4.39;84.85
64937;SHT30;51452;47.698;19.050;2022-12-16T18:16:42;4.47;84.92
64937;SHT30;51452;47.698;19.050;2022-12-16T18:19:26;4.39;84.95
64937;SHT30;51452;47.698;19.050;2022-12-16T18:22:24;4.45;84.92
64937;SHT30;51452;47.698;19.050;2022-12-16T18:25:08;4.50;84.59
64937;SHT30;51452;47.698;19.050;2022-12-16T18:27:52;4.63;84.55